createdAt,value
2022-08-20T00:00:45.957Z,12
2022-08-20T00:01:46.009Z,12
2022-08-20T00:02:45.949Z,12
2022-08-20T00:03:50.304Z,12
2022-08-20T00:04:45.955Z,12
2022-08-20T00:05:45.947Z,12
2022-08-20T00:06:45.957Z,12
2022-08-20T00:07:45.950Z,12
2022-08-20T00:08:45.957Z,12
2022-08-20T00:09:45.955Z,12
2022-08-20T00:11:45.959Z,12
2022-08-20T00:12:45.962Z,12
2022-08-20T00:13:45.957Z,12
2022-08-20T00:14:45.963Z,13
2022-08-20T00:16:45.966Z,12
2022-08-20T00:17:45.958Z,12
2022-08-20T00:19:45.956Z,12
2022-08-20T00:21:45.955Z,12
2022-08-20T00:22:45.969Z,13
2022-08-20T00:24:45.966Z,12
2022-08-20T00:25:45.961Z,11
2022-08-20T00:26:51.892Z,12
2022-08-20T00:27:45.957Z,11
2022-08-20T00:29:45.956Z,12
2022-08-20T00:30:45.974Z,12
2022-08-20T00:31:45.968Z,12
2022-08-20T00:32:45.968Z,12
2022-08-20T00:33:45.972Z,11
2022-08-20T00:34:45.960Z,12
2022-08-20T00:35:45.966Z,11
2022-08-20T00:37:45.969Z,12
2022-08-20T00:39:46.027Z,10
2022-08-20T00:40:45.968Z,11
2022-08-20T00:42:45.967Z,11
2022-08-20T00:43:45.969Z,12
2022-08-20T00:44:45.967Z,12
2022-08-20T00:45:45.967Z,12
2022-08-20T00:46:45.960Z,12
2022-08-20T00:47:51.470Z,11
2022-08-20T00:48:45.978Z,12
2022-08-20T00:49:45.963Z,12
2022-08-20T00:50:45.962Z,11
2022-08-20T00:51:45.973Z,12
2022-08-20T00:53:45.972Z,12
2022-08-20T00:54:45.965Z,13
2022-08-20T00:55:45.968Z,13
2022-08-20T00:56:45.976Z,12
2022-08-20T00:58:45.988Z,12
2022-08-20T00:59:45.966Z,12
2022-08-20T01:00:45.969Z,12
2022-08-20T01:01:55.902Z,12
2022-08-20T01:03:45.969Z,12
2022-08-20T01:04:45.965Z,12
2022-08-20T01:05:45.967Z,12
2022-08-20T01:06:46.003Z,13
2022-08-20T01:07:45.973Z,12
2022-08-20T01:08:45.978Z,12
2022-08-20T01:09:57.595Z,11
2022-08-20T01:11:45.971Z,12
2022-08-20T01:12:45.978Z,12
2022-08-20T01:13:45.979Z,12
2022-08-20T01:14:45.975Z,12
2022-08-20T01:15:45.988Z,13
2022-08-20T01:16:45.981Z,13
2022-08-20T01:17:45.986Z,12
2022-08-20T01:18:45.971Z,12
2022-08-20T01:19:45.977Z,12
2022-08-20T01:20:45.978Z,12
2022-08-20T01:21:49.673Z,12
2022-08-20T01:22:45.981Z,12
2022-08-20T01:23:45.978Z,12
2022-08-20T01:24:45.982Z,12
2022-08-20T01:27:45.976Z,12
2022-08-20T01:28:45.996Z,12
2022-08-20T01:29:46.000Z,12
2022-08-20T01:30:45.984Z,13
2022-08-20T01:32:45.974Z,13
2022-08-20T01:33:46.021Z,12
2022-08-20T01:34:45.989Z,12
2022-08-20T01:35:45.985Z,12
2022-08-20T01:36:46.591Z,13
2022-08-20T01:37:45.983Z,12
2022-08-20T01:38:50.270Z,13
2022-08-20T01:40:45.990Z,13
2022-08-20T01:41:45.987Z,12
2022-08-20T01:42:58.683Z,13
2022-08-20T01:43:45.987Z,12
2022-08-20T01:45:45.993Z,13
2022-08-20T01:46:45.988Z,12
2022-08-20T01:47:45.988Z,13
2022-08-20T01:48:45.991Z,13
2022-08-20T01:49:45.989Z,13
2022-08-20T01:50:45.995Z,12
2022-08-20T01:51:45.989Z,12
2022-08-20T01:52:45.991Z,13
2022-08-20T01:53:45.989Z,12
2022-08-20T01:55:46.021Z,13
2022-08-20T01:56:45.988Z,11
2022-08-20T01:57:45.996Z,12
2022-08-20T01:58:45.993Z,12
2022-08-20T02:01:47.112Z,12
2022-08-20T02:02:45.990Z,13
2022-08-20T02:03:45.993Z,12
2022-08-20T02:04:45.997Z,12
2022-08-20T02:05:45.994Z,12
2022-08-20T02:06:56.628Z,12
2022-08-20T02:09:45.996Z,11
2022-08-20T02:10:46.005Z,12
2022-08-20T02:11:45.990Z,13
2022-08-20T02:12:46.009Z,12
2022-08-20T02:14:46.004Z,12
2022-08-20T02:15:46.003Z,12
2022-08-20T02:16:52.455Z,12
2022-08-20T02:17:46.000Z,11
2022-08-20T02:19:46.005Z,12
2022-08-20T02:20:46.014Z,12
2022-08-20T02:21:45.999Z,10
2022-08-20T02:22:49.923Z,11
2022-08-20T02:23:46.012Z,12
2022-08-20T02:24:45.997Z,11
2022-08-20T02:25:46.013Z,11
2022-08-20T02:27:46.004Z,11
2022-08-20T02:28:46.007Z,11
2022-08-20T02:29:46.001Z,11
2022-08-20T02:30:46.005Z,10
2022-08-20T02:32:24.873Z,10
2022-08-20T02:32:46.005Z,10
2022-08-20T02:34:21.961Z,9
2022-08-20T02:34:45.998Z,9
2022-08-20T02:35:46.004Z,9
2022-08-20T02:36:46.006Z,9
2022-08-20T02:37:46.020Z,9
2022-08-20T02:38:46.009Z,9
2022-08-20T02:39:46.038Z,9
2022-08-20T02:40:46.009Z,10
2022-08-20T02:41:46.008Z,9
2022-08-20T02:42:46.023Z,9
2022-08-20T02:44:46.011Z,9
2022-08-20T02:45:46.015Z,9
2022-08-20T02:46:46.021Z,9
2022-08-20T02:47:46.015Z,8
2022-08-20T02:50:46.011Z,8
2022-08-20T02:51:46.017Z,8
2022-08-20T02:53:46.016Z,9
2022-08-20T02:54:46.014Z,8
2022-08-20T02:55:46.004Z,8
2022-08-20T02:56:46.015Z,8
2022-08-20T02:58:46.017Z,8
2022-08-20T02:59:46.013Z,8
2022-08-20T03:00:46.009Z,8
2022-08-20T03:01:46.024Z,9
2022-08-20T03:02:46.031Z,9
2022-08-20T03:03:46.396Z,8
2022-08-20T03:04:46.016Z,9
2022-08-20T03:06:46.020Z,8
2022-08-20T03:07:46.018Z,8
2022-08-20T03:08:46.014Z,8
2022-08-20T03:09:46.015Z,8
2022-08-20T03:10:46.035Z,8
2022-08-20T03:11:46.016Z,8
2022-08-20T03:12:46.020Z,8
2022-08-20T03:14:46.015Z,9
2022-08-20T03:15:46.029Z,9
2022-08-20T03:16:46.019Z,9
2022-08-20T03:17:46.045Z,9
2022-08-20T03:18:46.019Z,10
2022-08-20T03:19:46.048Z,9
2022-08-20T03:20:46.170Z,9
2022-08-20T03:21:46.023Z,9
2022-08-20T03:22:46.022Z,9
2022-08-20T03:23:46.041Z,9
2022-08-20T03:24:46.027Z,9
2022-08-20T03:25:46.026Z,10
2022-08-20T03:27:46.021Z,10
2022-08-20T03:28:46.026Z,9
2022-08-20T03:29:46.020Z,9
2022-08-20T03:30:46.024Z,9
2022-08-20T03:32:46.024Z,9
2022-08-20T03:33:52.668Z,10
2022-08-20T03:34:46.028Z,9
2022-08-20T03:35:46.029Z,9
2022-08-20T03:36:46.031Z,9
2022-08-20T03:38:46.040Z,10
2022-08-20T03:39:46.177Z,9
2022-08-20T03:40:46.036Z,10
2022-08-20T03:41:46.056Z,10
2022-08-20T03:42:46.033Z,10
2022-08-20T03:43:46.029Z,10
2022-08-20T03:44:46.038Z,9
2022-08-20T03:45:46.034Z,10
2022-08-20T03:46:46.027Z,10
2022-08-20T03:47:46.034Z,10
2022-08-20T03:48:46.044Z,10
2022-08-20T03:49:46.035Z,10
2022-08-20T03:51:57.575Z,10
2022-08-20T03:52:46.078Z,10
2022-08-20T03:53:46.040Z,10
2022-08-20T03:54:46.043Z,10
2022-08-20T03:55:46.030Z,10
2022-08-20T03:57:46.034Z,10
2022-08-20T03:59:46.038Z,10
2022-08-20T04:00:46.039Z,10
2022-08-20T04:01:46.866Z,10
2022-08-20T04:02:46.038Z,11
2022-08-20T04:04:46.043Z,11
2022-08-20T04:05:46.034Z,10
2022-08-20T04:07:46.044Z,10
2022-08-20T04:08:46.043Z,10
2022-08-20T04:09:46.045Z,10
2022-08-20T04:10:46.036Z,10
2022-08-20T04:12:52.768Z,9
2022-08-20T04:13:46.070Z,10
2022-08-20T04:14:46.036Z,10
2022-08-20T04:15:46.048Z,10
2022-08-20T04:16:46.040Z,9
2022-08-20T04:17:46.051Z,9
2022-08-20T04:18:56.106Z,9
2022-08-20T04:19:46.042Z,9
2022-08-20T04:21:46.048Z,10
2022-08-20T04:22:55.296Z,10
2022-08-20T04:23:46.056Z,10
2022-08-20T04:24:46.044Z,10
2022-08-20T04:25:46.046Z,11
2022-08-20T04:26:46.049Z,11
2022-08-20T04:27:46.046Z,11
2022-08-20T04:28:46.060Z,11
2022-08-20T04:29:46.055Z,11
2022-08-20T04:30:51.737Z,11
2022-08-20T04:31:46.053Z,12
2022-08-20T04:33:46.055Z,11
2022-08-20T04:34:47.254Z,11
2022-08-20T04:35:46.060Z,11
2022-08-20T04:36:46.047Z,10
2022-08-20T04:37:46.047Z,10
2022-08-20T04:38:48.050Z,11
2022-08-20T04:39:46.175Z,11
2022-08-20T04:40:46.055Z,10
2022-08-20T04:41:46.049Z,11
2022-08-20T04:42:46.044Z,11
2022-08-20T04:43:46.051Z,11
2022-08-20T04:44:46.045Z,11
2022-08-20T04:45:46.049Z,11
2022-08-20T04:46:46.045Z,11
2022-08-20T04:49:46.059Z,11
2022-08-20T04:50:46.055Z,11
2022-08-20T04:51:46.052Z,12
2022-08-20T04:52:46.050Z,12
2022-08-20T04:53:52.477Z,11
2022-08-20T04:54:46.069Z,11
2022-08-20T04:55:46.077Z,12
2022-08-20T04:56:46.058Z,11
2022-08-20T04:57:46.062Z,12
2022-08-20T04:59:46.055Z,12
2022-08-20T05:00:46.129Z,12
2022-08-20T05:01:46.058Z,12
2022-08-20T05:03:46.860Z,12
2022-08-20T05:04:46.054Z,11
2022-08-20T05:05:46.060Z,12
2022-08-20T05:07:46.056Z,11
2022-08-20T05:08:46.058Z,11
2022-08-20T05:09:46.066Z,11
2022-08-20T05:10:46.059Z,11
2022-08-20T05:11:46.065Z,13
2022-08-20T05:12:56.979Z,12
2022-08-20T05:14:46.064Z,12
2022-08-20T05:15:46.067Z,12
2022-08-20T05:16:46.065Z,12
2022-08-20T05:17:46.064Z,12
2022-08-20T05:20:46.071Z,12
2022-08-20T05:21:46.066Z,12
2022-08-20T05:22:46.092Z,13
2022-08-20T05:23:46.070Z,13
2022-08-20T05:25:46.067Z,12
2022-08-20T05:27:47.906Z,12
2022-08-20T05:28:53.979Z,12
2022-08-20T05:29:46.082Z,12
2022-08-20T05:30:46.067Z,12
2022-08-20T05:32:46.059Z,12
2022-08-20T05:33:46.075Z,12
2022-08-20T05:34:46.071Z,12
2022-08-20T05:35:46.072Z,13
2022-08-20T05:37:46.069Z,12
2022-08-20T05:38:49.796Z,12
2022-08-20T05:39:46.166Z,12
2022-08-20T05:40:46.065Z,12
2022-08-20T05:41:46.066Z,12
2022-08-20T05:43:46.075Z,12
2022-08-20T05:44:46.083Z,13
2022-08-20T05:46:46.083Z,12
2022-08-20T05:48:46.072Z,11
2022-08-20T05:49:46.068Z,11
2022-08-20T05:50:46.067Z,12
2022-08-20T05:51:46.090Z,12
2022-08-20T05:52:46.077Z,12
2022-08-20T05:53:46.071Z,13
2022-08-20T05:55:46.074Z,13
2022-08-20T05:57:46.072Z,13
2022-08-20T05:59:46.081Z,12
2022-08-20T06:00:46.132Z,13
2022-08-20T06:01:46.129Z,12
2022-08-20T06:02:46.075Z,12
2022-08-20T06:03:52.884Z,11
2022-08-20T06:05:46.070Z,12
2022-08-20T06:07:46.080Z,12
2022-08-20T06:08:46.070Z,12
2022-08-20T06:09:46.076Z,13
2022-08-20T06:10:46.095Z,12
2022-08-20T06:13:46.079Z,12
2022-08-20T06:14:46.075Z,12
2022-08-20T06:15:46.082Z,12
2022-08-20T06:16:57.661Z,12
2022-08-20T06:17:46.083Z,12
2022-08-20T06:18:46.087Z,12
2022-08-20T06:22:46.100Z,11
2022-08-20T06:23:56.627Z,11
2022-08-20T06:26:46.085Z,12
2022-08-20T06:27:46.094Z,12
2022-08-20T06:28:46.086Z,12
2022-08-20T06:29:46.093Z,12
2022-08-20T06:31:46.088Z,12
2022-08-20T06:32:46.093Z,13
2022-08-20T06:34:49.808Z,11
2022-08-20T06:35:46.090Z,11
2022-08-20T06:36:46.088Z,12
2022-08-20T06:37:46.093Z,11
2022-08-20T06:39:46.214Z,12
2022-08-20T06:40:46.102Z,11
2022-08-20T06:41:46.133Z,11
2022-08-20T06:42:48.813Z,12
2022-08-20T06:43:46.096Z,11
2022-08-20T06:44:46.095Z,11
2022-08-20T06:45:46.093Z,11
2022-08-20T06:47:46.086Z,11
2022-08-20T06:48:46.104Z,11
2022-08-20T06:49:46.095Z,11
2022-08-20T06:50:47.703Z,11
2022-08-20T06:53:46.103Z,11
2022-08-20T06:54:46.104Z,11
2022-08-20T06:55:48.616Z,11
2022-08-20T06:56:46.097Z,11
2022-08-20T06:57:46.174Z,11
2022-08-20T06:58:46.110Z,11
2022-08-20T06:59:54.002Z,11
2022-08-20T07:00:46.146Z,11
2022-08-20T07:01:46.197Z,10
2022-08-20T07:02:46.102Z,10
2022-08-20T07:04:46.102Z,10
2022-08-20T07:05:46.104Z,10
2022-08-20T07:06:46.107Z,10
2022-08-20T07:08:46.106Z,9
2022-08-20T07:09:46.128Z,9
2022-08-20T07:10:46.109Z,9
2022-08-20T07:11:46.101Z,10
2022-08-20T07:12:46.105Z,9
2022-08-20T07:13:46.109Z,9
2022-08-20T07:14:46.112Z,8
2022-08-20T07:16:46.108Z,7
2022-08-20T07:18:46.104Z,8
2022-08-20T07:19:46.112Z,8
2022-08-20T07:21:46.150Z,7
2022-08-20T07:22:46.108Z,6
2022-08-20T07:23:46.111Z,6
2022-08-20T07:24:49.145Z,6
2022-08-20T07:25:46.111Z,6
2022-08-20T07:26:46.133Z,5
2022-08-20T07:27:46.110Z,5
2022-08-20T07:30:56.746Z,5
2022-08-20T07:31:46.110Z,6
2022-08-20T07:32:46.110Z,6
2022-08-20T07:33:46.109Z,6
2022-08-20T07:34:46.110Z,5
2022-08-20T07:35:46.120Z,5
2022-08-20T07:36:46.112Z,5
2022-08-20T07:37:46.109Z,5
2022-08-20T07:38:46.157Z,6
2022-08-20T07:40:46.117Z,6
2022-08-20T07:41:52.842Z,6
2022-08-20T07:42:46.130Z,6
2022-08-20T07:43:46.239Z,6
2022-08-20T07:45:48.483Z,6
2022-08-20T07:46:46.117Z,6
2022-08-20T07:47:46.115Z,6
2022-08-20T07:49:46.108Z,5
2022-08-20T07:50:46.124Z,5
2022-08-20T07:51:46.117Z,5
2022-08-20T07:52:46.123Z,5
2022-08-20T07:53:46.131Z,5
2022-08-20T07:54:46.126Z,4
2022-08-20T07:55:57.218Z,5
2022-08-20T07:56:46.138Z,4
2022-08-20T07:58:46.127Z,4
2022-08-20T08:00:46.182Z,4
2022-08-20T08:01:46.161Z,4
2022-08-20T08:03:50.323Z,4
2022-08-20T08:04:46.115Z,4
2022-08-20T08:07:46.147Z,4
2022-08-20T08:09:46.124Z,5
2022-08-20T08:10:46.127Z,5
2022-08-20T08:11:47.701Z,4
2022-08-20T08:12:46.121Z,4
2022-08-20T08:14:46.124Z,4
2022-08-20T08:15:46.126Z,4
2022-08-20T08:16:46.128Z,4
2022-08-20T08:17:46.127Z,4
2022-08-20T08:18:46.126Z,5
2022-08-20T08:19:46.125Z,4
2022-08-20T08:20:47.026Z,5
2022-08-20T08:21:46.230Z,4
2022-08-20T08:22:46.139Z,4
2022-08-20T08:23:46.131Z,5
2022-08-20T08:24:57.030Z,4
2022-08-20T08:25:46.124Z,5
2022-08-20T08:26:46.129Z,5
2022-08-20T08:27:46.126Z,5
2022-08-20T08:28:46.147Z,4
2022-08-20T08:29:46.133Z,5
2022-08-20T08:30:46.133Z,5
2022-08-20T08:32:46.134Z,5
2022-08-20T08:34:46.139Z,5
2022-08-20T08:35:46.140Z,5
2022-08-20T08:36:46.131Z,5
2022-08-20T08:37:46.156Z,5
2022-08-20T08:39:46.173Z,4
2022-08-20T08:40:46.139Z,4
2022-08-20T08:42:46.135Z,4
2022-08-20T08:46:46.149Z,4
2022-08-20T08:47:46.140Z,4
2022-08-20T08:49:46.139Z,4
2022-08-20T08:51:46.147Z,5
2022-08-20T08:52:46.137Z,5
2022-08-20T08:53:46.148Z,5
2022-08-20T08:54:46.142Z,5
2022-08-20T08:56:50.200Z,6
2022-08-20T08:57:46.143Z,7
2022-08-20T08:58:46.154Z,8
2022-08-20T08:59:46.163Z,8
2022-08-20T09:00:56.074Z,10
2022-08-20T09:01:54.085Z,9
2022-08-20T09:02:46.183Z,12
2022-08-20T09:04:46.149Z,16
2022-08-20T09:05:46.136Z,17
2022-08-20T09:07:46.148Z,16
2022-08-20T09:09:46.184Z,18
2022-08-20T09:10:46.164Z,17
2022-08-20T09:13:46.148Z,17
2022-08-20T09:14:46.145Z,17
2022-08-20T09:15:46.155Z,19
2022-08-20T09:16:53.069Z,17
2022-08-20T09:17:46.147Z,18
2022-08-20T09:18:46.149Z,18
2022-08-20T09:19:46.152Z,17
2022-08-20T09:20:46.162Z,18
2022-08-20T09:21:46.151Z,18
2022-08-20T09:22:46.166Z,17
2022-08-20T09:23:46.149Z,18
2022-08-20T09:24:46.148Z,18
2022-08-20T09:27:46.153Z,17
2022-08-20T09:28:51.207Z,17
2022-08-20T09:29:46.154Z,19
2022-08-20T09:31:46.427Z,17
2022-08-20T09:33:46.159Z,17
2022-08-20T09:36:46.153Z,15
2022-08-20T09:37:46.167Z,15
2022-08-20T09:38:46.161Z,15
2022-08-20T09:39:46.195Z,16
2022-08-20T09:41:46.160Z,16
2022-08-20T09:42:46.158Z,16
2022-08-20T09:43:46.152Z,17
2022-08-20T09:44:46.158Z,16
2022-08-20T09:46:46.158Z,16
2022-08-20T09:47:56.596Z,16
2022-08-20T09:48:46.167Z,16
2022-08-20T09:49:46.159Z,16
2022-08-20T09:50:46.164Z,16
2022-08-20T09:51:46.164Z,15
2022-08-20T09:52:46.164Z,16
2022-08-20T09:53:46.162Z,16
2022-08-20T09:54:46.752Z,16
2022-08-20T09:55:46.161Z,15
2022-08-20T09:56:46.162Z,15
2022-08-20T09:57:46.163Z,16
2022-08-20T10:00:46.160Z,14
2022-08-20T10:01:46.200Z,15
2022-08-20T10:02:46.191Z,15
2022-08-20T10:03:46.167Z,14
2022-08-20T10:05:46.163Z,15
2022-08-20T10:07:46.161Z,15
2022-08-20T10:08:46.159Z,14
2022-08-20T10:09:46.165Z,14
2022-08-20T10:10:46.166Z,14
2022-08-20T10:11:46.162Z,13
2022-08-20T10:12:46.176Z,13
2022-08-20T10:13:46.176Z,13
2022-08-20T10:15:46.166Z,12
2022-08-20T10:16:46.164Z,13
2022-08-20T10:17:46.173Z,13
2022-08-20T10:18:46.166Z,12
2022-08-20T10:19:46.178Z,12
2022-08-20T10:20:46.168Z,12
2022-08-20T10:21:46.174Z,12
2022-08-20T10:22:46.174Z,13
2022-08-20T10:23:46.176Z,13
2022-08-20T10:25:46.174Z,11
2022-08-20T10:27:46.177Z,12
2022-08-20T10:28:46.174Z,13
2022-08-20T10:30:46.176Z,13
2022-08-20T10:31:46.177Z,12
2022-08-20T10:32:46.172Z,12
2022-08-20T10:33:46.180Z,11
2022-08-20T10:35:46.177Z,11
2022-08-20T10:36:46.249Z,10
2022-08-20T10:37:46.179Z,11
2022-08-20T10:38:46.174Z,11
2022-08-20T10:39:46.234Z,11
2022-08-20T10:40:52.449Z,12
2022-08-20T10:41:46.180Z,11
2022-08-20T10:42:46.193Z,11
2022-08-20T10:43:46.184Z,11
2022-08-20T10:44:46.178Z,12
2022-08-20T10:45:46.179Z,12
2022-08-20T10:46:46.185Z,13
2022-08-20T10:47:46.180Z,12
2022-08-20T10:49:46.180Z,10
2022-08-20T10:50:46.182Z,10
2022-08-20T10:51:46.189Z,10
2022-08-20T10:52:46.185Z,10
2022-08-20T10:53:46.236Z,10
2022-08-20T10:54:46.183Z,10
2022-08-20T10:55:46.189Z,10
2022-08-20T10:57:46.186Z,9
2022-08-20T10:58:46.214Z,9
2022-08-20T10:59:46.191Z,10
2022-08-20T11:00:46.184Z,10
2022-08-20T11:01:46.210Z,10
2022-08-20T11:02:46.187Z,10
2022-08-20T11:04:46.191Z,11
2022-08-20T11:05:46.189Z,11
2022-08-20T11:06:46.192Z,10
2022-08-20T11:07:50.623Z,10
2022-08-20T11:10:46.198Z,9
2022-08-20T11:11:46.200Z,8
2022-08-20T11:12:46.502Z,10
2022-08-20T11:13:46.192Z,9
2022-08-20T11:15:46.193Z,10
2022-08-20T11:16:46.206Z,10
2022-08-20T11:19:46.197Z,9
2022-08-20T11:20:46.209Z,10
2022-08-20T11:21:46.202Z,10
2022-08-20T11:24:46.193Z,10
2022-08-20T11:25:46.201Z,10
2022-08-20T11:26:46.203Z,10
2022-08-20T11:27:46.202Z,9
2022-08-20T11:29:46.212Z,8
2022-08-20T11:31:46.192Z,8
2022-08-20T11:32:46.200Z,8
2022-08-20T11:33:46.205Z,7
2022-08-20T11:34:46.199Z,9
2022-08-20T11:36:46.222Z,8
2022-08-20T11:37:46.257Z,9
2022-08-20T11:39:46.251Z,8
2022-08-20T11:40:46.202Z,8
2022-08-20T11:41:46.200Z,9
2022-08-20T11:43:10.988Z,9
2022-08-20T11:44:46.208Z,9
2022-08-20T11:46:46.215Z,8
2022-08-20T11:47:46.198Z,8
2022-08-20T11:49:46.206Z,9
2022-08-20T11:50:46.209Z,9
2022-08-20T11:51:49.473Z,9
2022-08-20T11:52:46.214Z,8
2022-08-20T11:53:46.209Z,8
2022-08-20T11:54:46.217Z,8
2022-08-20T11:55:46.213Z,9
2022-08-20T11:57:46.215Z,9
2022-08-20T11:58:46.204Z,9
2022-08-20T11:59:46.232Z,11
2022-08-20T12:00:46.211Z,10
2022-08-20T12:03:46.211Z,9
2022-08-20T12:04:46.210Z,9
2022-08-20T12:05:46.295Z,8
2022-08-20T12:06:46.216Z,9
2022-08-20T12:07:46.209Z,9
2022-08-20T12:08:46.208Z,8
2022-08-20T12:09:50.930Z,7
2022-08-20T12:10:46.213Z,8
2022-08-20T12:11:46.216Z,8
2022-08-20T12:12:46.221Z,10
2022-08-20T12:13:48.747Z,9
2022-08-20T12:14:46.215Z,8
2022-08-20T12:15:46.217Z,8
2022-08-20T12:16:46.245Z,7
2022-08-20T12:18:46.218Z,10
2022-08-20T12:19:46.213Z,8
2022-08-20T12:20:46.218Z,4
2022-08-20T12:21:46.232Z,2
2022-08-20T12:23:46.221Z,2
2022-08-20T12:25:46.219Z,2
2022-08-20T12:26:46.219Z,1
2022-08-20T12:27:46.225Z,2
2022-08-20T12:28:46.223Z,1
2022-08-20T12:31:46.213Z,1
2022-08-20T12:33:46.217Z,2
2022-08-20T12:34:46.223Z,2
2022-08-20T12:36:46.223Z,1
2022-08-20T12:37:47.019Z,1
2022-08-20T12:39:46.388Z,1
2022-08-20T12:40:46.225Z,1
2022-08-20T12:41:46.223Z,1
2022-08-20T12:42:46.221Z,1
2022-08-20T12:44:46.221Z,1
2022-08-20T12:45:46.232Z,1
2022-08-20T12:46:46.226Z,1
2022-08-20T12:47:46.231Z,1
2022-08-20T12:48:46.222Z,1
2022-08-20T12:50:46.239Z,2
2022-08-20T12:51:46.227Z,1
2022-08-20T12:52:46.253Z,1
2022-08-20T12:53:46.233Z,1
2022-08-20T12:55:46.231Z,1
2022-08-20T12:56:46.233Z,1
2022-08-20T12:57:46.291Z,1
2022-08-20T12:58:46.228Z,1
2022-08-20T13:00:48.629Z,1
2022-08-20T13:01:46.301Z,1
2022-08-20T13:02:46.233Z,1
2022-08-20T13:03:46.238Z,1
2022-08-20T13:05:46.232Z,1
2022-08-20T13:06:46.232Z,2
2022-08-20T13:07:46.238Z,1
2022-08-20T13:09:46.257Z,1
2022-08-20T13:10:46.236Z,1
2022-08-20T13:11:46.247Z,2
2022-08-20T13:13:46.240Z,2
2022-08-20T13:14:46.235Z,1
2022-08-20T13:15:46.245Z,1
2022-08-20T13:16:46.245Z,1
2022-08-20T13:18:46.239Z,1
2022-08-20T13:19:46.249Z,1
2022-08-20T13:21:46.245Z,2
2022-08-20T13:22:46.243Z,2
2022-08-20T13:24:46.885Z,1
2022-08-20T13:26:46.239Z,2
2022-08-20T13:27:46.243Z,2
2022-08-20T13:28:46.244Z,2
2022-08-20T13:29:46.244Z,2
2022-08-20T13:31:46.241Z,2
2022-08-20T13:34:46.253Z,1
2022-08-20T13:35:46.246Z,2
2022-08-20T13:36:46.248Z,1
2022-08-20T13:37:46.243Z,2
2022-08-20T13:39:46.370Z,2
2022-08-20T13:42:46.250Z,1
2022-08-20T13:43:46.253Z,2
2022-08-20T13:44:46.247Z,2
2022-08-20T13:45:46.265Z,1
2022-08-20T13:46:46.246Z,1
2022-08-20T13:47:46.273Z,1
2022-08-20T13:49:46.254Z,2
2022-08-20T13:50:46.747Z,1
2022-08-20T13:51:46.252Z,1
2022-08-20T13:52:46.249Z,2
2022-08-20T13:55:46.255Z,1
2022-08-20T13:56:46.259Z,1
2022-08-20T13:58:46.258Z,2
2022-08-20T13:59:46.261Z,1
2022-08-20T14:00:46.256Z,1
2022-08-20T14:01:46.313Z,1
2022-08-20T14:03:46.269Z,2
2022-08-20T14:05:46.257Z,1
2022-08-20T14:06:46.270Z,1
2022-08-20T14:08:46.260Z,1
2022-08-20T14:10:46.260Z,1
2022-08-20T14:11:46.265Z,2
2022-08-20T14:12:46.259Z,1
2022-08-20T14:13:46.266Z,2
2022-08-20T14:14:46.263Z,1
2022-08-20T14:16:46.263Z,1
2022-08-20T14:18:48.926Z,2
2022-08-20T14:19:46.270Z,2
2022-08-20T14:20:46.262Z,1
2022-08-20T14:21:46.271Z,1
2022-08-20T14:23:46.272Z,2
2022-08-20T14:24:52.896Z,2
2022-08-20T14:25:46.278Z,2
2022-08-20T14:26:46.272Z,1
2022-08-20T14:29:46.280Z,1
2022-08-20T14:31:46.274Z,2
2022-08-20T14:32:46.275Z,2
2022-08-20T14:33:46.282Z,1
2022-08-20T14:34:46.272Z,2
2022-08-20T14:35:46.278Z,1
2022-08-20T14:37:46.276Z,1
2022-08-20T14:38:46.296Z,2
2022-08-20T14:39:46.317Z,1
2022-08-20T14:40:46.276Z,2
2022-08-20T14:42:47.789Z,1
2022-08-20T14:43:46.278Z,1
2022-08-20T14:45:46.278Z,1
2022-08-20T14:46:46.281Z,1
2022-08-20T14:47:46.278Z,1
2022-08-20T14:48:46.283Z,1
2022-08-20T14:50:46.283Z,2
2022-08-20T14:51:46.285Z,2
2022-08-20T14:52:46.284Z,2
2022-08-20T14:55:46.283Z,1
2022-08-20T14:57:46.285Z,1
2022-08-20T14:59:46.272Z,2
2022-08-20T15:00:46.376Z,2
2022-08-20T15:01:46.287Z,2
2022-08-20T15:03:46.300Z,2
2022-08-20T15:04:52.245Z,2
2022-08-20T15:05:46.279Z,1
2022-08-20T15:06:46.292Z,1
2022-08-20T15:07:46.286Z,1
2022-08-20T15:08:46.310Z,1
2022-08-20T15:09:46.281Z,2
2022-08-20T15:10:46.284Z,1
2022-08-20T15:12:46.286Z,2
2022-08-20T15:13:46.287Z,1
2022-08-20T15:14:47.978Z,1
2022-08-20T15:16:46.291Z,1
2022-08-20T15:17:46.293Z,1
2022-08-20T15:20:46.331Z,1
2022-08-20T15:21:46.678Z,2
2022-08-20T15:22:46.293Z,2
2022-08-20T15:25:46.295Z,2
2022-08-20T15:26:46.310Z,1
2022-08-20T15:30:46.291Z,2
2022-08-20T15:31:46.294Z,2
2022-08-20T15:32:46.298Z,2
2022-08-20T15:33:46.301Z,1
2022-08-20T15:36:46.312Z,2
2022-08-20T15:38:46.295Z,1
2022-08-20T15:39:46.337Z,1
2022-08-20T15:40:46.303Z,2
2022-08-20T15:41:46.300Z,1
2022-08-20T15:42:46.633Z,1
2022-08-20T15:43:46.303Z,2
2022-08-20T15:44:46.297Z,2
2022-08-20T15:45:46.854Z,2
2022-08-20T15:46:46.306Z,3
2022-08-20T15:47:46.296Z,2
2022-08-20T15:48:46.299Z,1
2022-08-20T15:49:46.301Z,2
2022-08-20T15:50:46.309Z,1
2022-08-20T15:51:46.305Z,1
2022-08-20T15:52:46.315Z,1
2022-08-20T15:53:46.312Z,1
2022-08-20T15:54:46.308Z,1
2022-08-20T15:56:46.311Z,2
2022-08-20T16:01:46.378Z,1
2022-08-20T16:04:46.303Z,1
2022-08-20T16:05:46.313Z,1
2022-08-20T16:06:46.307Z,2
2022-08-20T16:07:46.327Z,2
2022-08-20T16:09:46.314Z,1
2022-08-20T16:10:46.325Z,2
2022-08-20T16:11:46.309Z,1
2022-08-20T16:12:46.307Z,1
2022-08-20T16:14:46.315Z,2
2022-08-20T16:15:49.561Z,1
2022-08-20T16:16:46.319Z,2
2022-08-20T16:18:46.317Z,2
2022-08-20T16:21:46.321Z,1
2022-08-20T16:23:46.308Z,1
2022-08-20T16:24:46.321Z,2
2022-08-20T16:25:46.330Z,1
2022-08-20T16:26:46.321Z,1
2022-08-20T16:28:46.317Z,2
2022-08-20T16:30:46.326Z,2
2022-08-20T16:31:46.345Z,1
2022-08-20T16:32:46.324Z,1
2022-08-20T16:33:46.329Z,1
2022-08-20T16:36:46.327Z,2
2022-08-20T16:37:46.339Z,2
2022-08-20T16:38:46.333Z,1
2022-08-20T16:39:47.596Z,1
2022-08-20T16:45:51.159Z,1
2022-08-20T16:46:46.326Z,2
2022-08-20T16:47:46.349Z,2
2022-08-20T16:49:46.360Z,1
2022-08-20T16:50:46.329Z,2
2022-08-20T16:51:51.371Z,3
2022-08-20T16:52:46.331Z,2
2022-08-20T16:54:46.344Z,1
2022-08-20T16:55:46.331Z,2
2022-08-20T16:57:46.338Z,1
2022-08-20T16:58:46.347Z,1
2022-08-20T16:59:46.333Z,2
2022-08-20T17:00:46.438Z,1
2022-08-20T17:02:46.329Z,2
2022-08-20T17:03:46.337Z,1
2022-08-20T17:07:46.518Z,1
2022-08-20T17:08:46.333Z,1
2022-08-20T17:09:46.345Z,1
2022-08-20T17:10:46.373Z,1
2022-08-20T17:11:46.341Z,1
2022-08-20T17:12:46.331Z,1
2022-08-20T17:13:46.337Z,1
2022-08-20T17:15:46.363Z,1
2022-08-20T17:19:46.339Z,2
2022-08-20T17:20:46.336Z,1
2022-08-20T17:21:46.340Z,1
2022-08-20T17:25:46.349Z,1
2022-08-20T17:26:46.341Z,1
2022-08-20T17:27:46.336Z,1
2022-08-20T17:29:46.343Z,1
2022-08-20T17:30:46.342Z,2
2022-08-20T17:31:46.337Z,1
2022-08-20T17:32:46.341Z,2
2022-08-20T17:33:46.353Z,2
2022-08-20T17:34:46.339Z,1
2022-08-20T17:35:46.343Z,1
2022-08-20T17:36:46.344Z,2
2022-08-20T17:37:46.343Z,2
2022-08-20T17:39:46.452Z,1
2022-08-20T17:41:46.386Z,2
2022-08-20T17:42:46.345Z,1
2022-08-20T17:44:46.339Z,2
2022-08-20T17:47:46.344Z,1
2022-08-20T17:48:46.344Z,2
2022-08-20T17:50:01.195Z,2
2022-08-20T17:52:46.346Z,2
2022-08-20T17:53:46.341Z,2
2022-08-20T17:54:46.355Z,1
2022-08-20T17:55:46.354Z,1
2022-08-20T17:58:54.201Z,1
2022-08-20T18:00:01.136Z,2
2022-08-20T18:03:46.353Z,1
2022-08-20T18:05:46.360Z,2
2022-08-20T18:06:46.374Z,1
2022-08-20T18:07:46.372Z,2
2022-08-20T18:08:46.358Z,2
2022-08-20T18:10:46.352Z,1
2022-08-20T18:11:46.357Z,1
2022-08-20T18:13:48.273Z,2
2022-08-20T18:14:46.365Z,2
2022-08-20T18:15:46.371Z,1
2022-08-20T18:16:46.362Z,1
2022-08-20T18:18:56.674Z,1
2022-08-20T18:19:46.369Z,2
2022-08-20T18:23:47.592Z,1
2022-08-20T18:24:46.366Z,2
2022-08-20T18:25:46.363Z,1
2022-08-20T18:26:46.371Z,1
2022-08-20T18:27:46.366Z,2
2022-08-20T18:28:46.400Z,1
2022-08-20T18:29:46.625Z,1
2022-08-20T18:31:46.382Z,1
2022-08-20T18:32:46.372Z,1
2022-08-20T18:33:46.434Z,1
2022-08-20T18:34:46.376Z,1
2022-08-20T18:36:46.370Z,2
2022-08-20T18:37:46.389Z,2
2022-08-20T18:38:46.374Z,2
2022-08-20T18:39:46.447Z,1
2022-08-20T18:40:46.369Z,1
2022-08-20T18:41:46.365Z,1
2022-08-20T18:42:46.369Z,1
2022-08-20T18:44:46.369Z,1
2022-08-20T18:45:46.372Z,1
2022-08-20T18:47:46.372Z,1
2022-08-20T18:52:46.372Z,2
2022-08-20T18:53:46.384Z,1
2022-08-20T18:55:46.380Z,1
2022-08-20T18:56:46.378Z,2
2022-08-20T18:57:46.376Z,1
2022-08-20T19:01:46.443Z,1
2022-08-20T19:02:46.390Z,1
2022-08-20T19:03:46.378Z,1
2022-08-20T19:05:46.391Z,2
2022-08-20T19:06:46.394Z,1
2022-08-20T19:08:46.393Z,2